createdAt,value
2019-03-24T00:01:00.989Z,68.00
2019-03-24T00:03:30.817Z,67.60
2019-03-24T00:06:00.911Z,68.50
2019-03-24T00:08:30.826Z,67.90
2019-03-24T00:11:01.394Z,67.70
2019-03-24T00:13:31.402Z,67.90
2019-03-24T00:16:01.937Z,68.40
2019-03-24T00:18:31.754Z,68.00
2019-03-24T00:21:01.584Z,68.40
2019-03-24T00:23:31.493Z,68.60
2019-03-24T00:26:01.720Z,68.30
2019-03-24T00:28:31.593Z,68.40
2019-03-24T00:31:01.415Z,68.70
2019-03-24T00:33:31.296Z,69.20
2019-03-24T00:36:01.116Z,69.30
2019-03-24T00:38:31.022Z,69.60
2019-03-24T00:41:00.922Z,69.40
2019-03-24T00:43:30.770Z,69.20
2019-03-24T00:46:00.663Z,69.40
2019-03-24T00:48:30.552Z,69.30
2019-03-24T00:51:00.481Z,69.10
2019-03-24T00:53:30.385Z,70.40
2019-03-24T00:56:00.241Z,70.50
2019-03-24T00:58:30.082Z,70.30
2019-03-24T01:00:59.969Z,70.00
2019-03-24T01:03:29.898Z,69.90
2019-03-24T01:06:01.760Z,70.30
2019-03-24T01:08:32.018Z,70.30
2019-03-24T01:11:01.908Z,70.70
2019-03-24T01:13:32.426Z,70.30
2019-03-24T01:16:02.250Z,70.80
2019-03-24T01:18:32.048Z,70.60
2019-03-24T01:21:01.825Z,70.30
2019-03-24T01:23:31.705Z,70.00
2019-03-24T01:26:01.739Z,70.00
2019-03-24T01:28:31.521Z,69.80
2019-03-24T01:31:01.348Z,69.80
2019-03-24T01:33:31.201Z,69.60
2019-03-24T01:36:00.984Z,69.60
2019-03-24T01:38:30.817Z,69.80
2019-03-24T01:41:01.809Z,69.70
2019-03-24T01:43:31.774Z,69.80
2019-03-24T01:46:01.546Z,69.60
2019-03-24T01:48:31.350Z,69.50
2019-03-24T01:51:01.179Z,69.50
2019-03-24T01:53:30.945Z,69.90
2019-03-24T01:56:00.845Z,70.00
2019-03-24T01:58:30.738Z,70.00
2019-03-24T02:01:00.685Z,69.90
2019-03-24T02:03:30.510Z,69.90
2019-03-24T02:06:00.327Z,69.90
2019-03-24T02:08:30.852Z,70.20
2019-03-24T02:11:00.858Z,70.20
2019-03-24T02:13:30.712Z,70.10
2019-03-24T02:16:08.959Z,70.10
2019-03-24T02:18:32.133Z,70.30
2019-03-24T02:21:01.910Z,70.20
2019-03-24T02:23:31.699Z,70.00
2019-03-24T02:26:01.594Z,70.20
2019-03-24T02:28:31.484Z,70.40
2019-03-24T02:31:01.264Z,70.60
2019-03-24T02:33:32.279Z,70.40
2019-03-24T02:36:02.210Z,70.30
2019-03-24T02:38:32.830Z,70.50
2019-03-24T02:41:02.766Z,70.20
2019-03-24T02:43:32.548Z,69.90
2019-03-24T02:46:02.401Z,69.90
2019-03-24T02:48:32.294Z,69.80
2019-03-24T02:51:02.242Z,70.40
2019-03-24T02:53:32.295Z,70.60
2019-03-24T02:56:02.067Z,70.40
2019-03-24T02:58:31.946Z,70.10
2019-03-24T03:01:01.773Z,70.30
2019-03-24T03:03:31.548Z,70.30
2019-03-24T03:06:02.331Z,70.20
2019-03-24T03:08:32.255Z,70.10
2019-03-24T03:11:02.154Z,70.40
2019-03-24T03:13:31.934Z,70.30
2019-03-24T03:16:01.717Z,70.60
2019-03-24T03:18:31.672Z,71.20
2019-03-24T03:21:01.482Z,71.30
2019-03-24T03:23:31.252Z,71.60
2019-03-24T03:26:01.226Z,71.70
2019-03-24T03:28:30.999Z,71.50
2019-03-24T03:31:01.025Z,71.60
2019-03-24T03:33:31.021Z,71.30
2019-03-24T03:36:00.911Z,72.10
2019-03-24T03:38:30.686Z,71.50
2019-03-24T03:41:00.473Z,71.70
2019-03-24T03:43:30.434Z,71.90
2019-03-24T03:46:00.223Z,71.80
2019-03-24T03:48:30.209Z,72.00
2019-03-24T03:51:00.054Z,71.80
2019-03-24T03:53:29.968Z,71.90
2019-03-24T03:55:59.866Z,71.60
2019-03-24T03:58:29.656Z,71.60
2019-03-24T04:00:59.650Z,71.30
2019-03-24T04:03:29.900Z,71.30
2019-03-24T04:06:00.507Z,71.00
2019-03-24T04:08:30.736Z,70.80
2019-03-24T04:11:00.507Z,70.80
2019-03-24T04:13:30.304Z,71.00
2019-03-24T04:16:00.190Z,71.50
2019-03-24T04:18:30.943Z,71.70
2019-03-24T04:21:00.721Z,71.60
2019-03-24T04:23:30.616Z,72.20
2019-03-24T04:26:00.533Z,71.70
2019-03-24T04:28:30.495Z,71.80
2019-03-24T04:31:00.401Z,71.70
2019-03-24T04:33:30.252Z,71.90
2019-03-24T04:36:00.061Z,72.00
2019-03-24T04:38:29.973Z,72.30
2019-03-24T04:40:59.774Z,72.10
2019-03-24T04:43:29.577Z,72.10
2019-03-24T04:45:59.396Z,71.70
2019-03-24T04:48:29.364Z,71.50
2019-03-24T04:50:59.185Z,71.40
2019-03-24T04:53:29.717Z,71.20
2019-03-24T04:55:59.500Z,71.40
2019-03-24T04:58:29.269Z,71.40
2019-03-24T05:00:59.132Z,71.40
2019-03-24T05:03:28.954Z,71.50
2019-03-24T05:05:59.064Z,71.50
2019-03-24T05:08:29.690Z,71.70
2019-03-24T05:10:59.496Z,71.60
2019-03-24T05:13:29.518Z,71.50
2019-03-24T05:15:59.426Z,71.90
2019-03-24T05:18:29.437Z,72.20
2019-03-24T05:20:59.403Z,72.50
2019-03-24T05:23:29.389Z,72.50
2019-03-24T05:25:59.218Z,72.70
2019-03-24T05:28:29.037Z,72.80
2019-03-24T05:30:59.144Z,72.90
2019-03-24T05:33:28.946Z,73.10
2019-03-24T05:35:58.929Z,73.00
2019-03-24T05:38:28.797Z,72.90
2019-03-24T05:40:58.569Z,72.80
2019-03-24T05:43:28.718Z,73.00
2019-03-24T05:45:58.542Z,73.10
2019-03-24T05:48:28.525Z,73.30
2019-03-24T05:50:58.442Z,73.30
2019-03-24T05:53:28.351Z,73.10
2019-03-24T05:55:58.273Z,73.00
2019-03-24T05:58:28.053Z,72.90
2019-03-24T06:00:58.801Z,72.50
2019-03-24T06:03:28.709Z,72.30
2019-03-24T06:05:58.608Z,72.00
2019-03-24T06:08:28.432Z,71.90
2019-03-24T06:10:58.332Z,71.60
2019-03-24T06:13:28.158Z,71.20
2019-03-24T06:15:58.285Z,70.80
2019-03-24T06:18:28.094Z,70.60
2019-03-24T06:20:57.919Z,70.40
2019-03-24T06:23:28.093Z,70.20
2019-03-24T06:25:57.863Z,69.80
2019-03-24T06:28:27.645Z,69.40
2019-03-24T06:30:57.564Z,68.70
2019-03-24T06:33:28.227Z,68.10
2019-03-24T06:35:57.998Z,67.10
2019-03-24T06:38:27.781Z,66.80
2019-03-24T06:40:57.765Z,65.90
2019-03-24T06:43:27.545Z,65.10
2019-03-24T06:45:57.317Z,64.50
2019-03-24T06:48:27.372Z,63.80
2019-03-24T06:50:57.400Z,63.20
2019-03-24T06:53:27.172Z,62.50
2019-03-24T06:55:56.958Z,62.10
2019-03-24T06:58:26.884Z,61.90
2019-03-24T07:00:56.738Z,61.70
2019-03-24T07:03:26.525Z,61.10
2019-03-24T07:05:56.401Z,60.80
2019-03-24T07:08:26.229Z,59.80
2019-03-24T07:10:56.785Z,59.10
2019-03-24T07:13:26.599Z,58.70
2019-03-24T07:15:56.470Z,58.20
2019-03-24T07:18:26.404Z,57.90
2019-03-24T07:20:56.317Z,57.60
2019-03-24T07:23:26.238Z,57.50
2019-03-24T07:25:56.077Z,56.90
2019-03-24T07:28:25.997Z,56.80
2019-03-24T07:30:55.828Z,56.30
2019-03-24T07:33:25.659Z,56.00
2019-03-24T07:35:55.624Z,56.10
2019-03-24T07:38:25.498Z,55.50
2019-03-24T07:40:55.396Z,55.10
2019-03-24T07:43:26.388Z,54.30
2019-03-24T07:45:56.222Z,53.80
2019-03-24T07:48:27.082Z,53.40
2019-03-24T07:50:56.934Z,52.90
2019-03-24T07:53:26.712Z,52.40
2019-03-24T07:55:56.498Z,52.00
2019-03-24T07:58:26.330Z,51.50
2019-03-24T08:00:56.370Z,51.50
2019-03-24T08:03:26.217Z,51.00
2019-03-24T08:05:56.052Z,51.10
2019-03-24T08:08:25.832Z,49.80
2019-03-24T08:10:55.734Z,49.50
2019-03-24T08:13:25.553Z,49.10
2019-03-24T08:15:55.346Z,48.90
2019-03-24T08:18:29.794Z,48.20
2019-03-24T08:20:56.854Z,48.30
2019-03-24T08:23:26.694Z,47.60
2019-03-24T08:25:56.721Z,46.70
2019-03-24T08:28:26.606Z,46.50
2019-03-24T08:30:56.622Z,46.50
2019-03-24T08:33:26.457Z,46.70
2019-03-24T08:35:56.310Z,46.70
2019-03-24T08:38:26.140Z,47.00
2019-03-24T08:40:55.959Z,47.40
2019-03-24T08:43:25.750Z,47.80
2019-03-24T08:45:55.625Z,48.10
2019-03-24T08:48:25.603Z,48.50
2019-03-24T08:50:55.569Z,48.80
2019-03-24T08:53:25.509Z,48.90
2019-03-24T08:55:55.289Z,49.00
2019-03-24T08:58:25.354Z,49.40
2019-03-24T09:00:55.135Z,49.50
2019-03-24T09:03:24.957Z,49.80
2019-03-24T09:05:55.047Z,50.00
2019-03-24T09:08:24.974Z,50.20
2019-03-24T09:10:54.896Z,50.60
2019-03-24T09:13:24.798Z,50.70
2019-03-24T09:15:54.664Z,50.60
2019-03-24T09:18:25.229Z,50.40
2019-03-24T09:20:56.077Z,51.00
2019-03-24T09:23:26.954Z,50.50
2019-03-24T09:25:56.864Z,50.70
2019-03-24T09:28:26.712Z,50.90
2019-03-24T09:30:56.558Z,51.00
2019-03-24T09:33:26.548Z,51.00
2019-03-24T09:35:56.338Z,50.80
2019-03-24T09:38:26.173Z,50.50
2019-03-24T09:40:56.106Z,50.60
2019-03-24T09:43:25.895Z,50.20
2019-03-24T09:45:56.269Z,49.10
2019-03-24T09:48:26.840Z,49.20
2019-03-24T09:50:57.658Z,48.70
2019-03-24T09:53:27.499Z,48.60
2019-03-24T09:55:57.502Z,48.40
2019-03-24T09:58:27.341Z,48.00
2019-03-24T10:00:57.121Z,48.40
2019-03-24T10:03:26.907Z,48.40
2019-03-24T10:05:57.038Z,48.30
2019-03-24T10:08:26.858Z,48.00
2019-03-24T10:10:56.698Z,47.80
2019-03-24T10:13:26.505Z,47.70
2019-03-24T10:15:56.284Z,47.50
2019-03-24T10:18:26.262Z,47.10
2019-03-24T10:20:56.026Z,47.30
2019-03-24T10:23:25.805Z,47.20
2019-03-24T10:25:55.636Z,47.20
2019-03-24T10:28:25.497Z,47.20
2019-03-24T10:30:55.324Z,47.10
2019-03-24T10:33:25.174Z,47.40
2019-03-24T10:35:55.018Z,47.10
2019-03-24T10:38:24.905Z,47.10
2019-03-24T10:40:54.881Z,46.90
2019-03-24T10:43:24.669Z,46.70
2019-03-24T10:45:54.516Z,46.40
2019-03-24T10:48:33.390Z,46.20
2019-03-24T10:50:56.760Z,46.40
2019-03-24T10:53:26.576Z,46.20
2019-03-24T10:55:56.365Z,45.90
2019-03-24T10:58:26.200Z,45.90
2019-03-24T11:00:56.065Z,45.90
2019-03-24T11:03:26.070Z,46.40
2019-03-24T11:05:57.004Z,45.90
2019-03-24T11:08:26.926Z,45.90
2019-03-24T11:10:56.714Z,46.10
2019-03-24T11:13:27.250Z,45.90
2019-03-24T11:15:59.537Z,46.10
2019-03-24T11:18:28.752Z,45.90
2019-03-24T11:20:58.609Z,45.80
2019-03-24T11:23:28.866Z,45.80
2019-03-24T11:25:58.688Z,45.90
2019-03-24T11:28:28.550Z,46.60
2019-03-24T11:30:58.397Z,46.00
2019-03-24T11:33:29.630Z,46.30
2019-03-24T11:35:59.601Z,46.30
2019-03-24T11:38:31.165Z,46.50
2019-03-24T11:41:01.049Z,46.40
2019-03-24T11:43:30.831Z,46.60
2019-03-24T11:46:00.678Z,46.40
2019-03-24T11:48:30.653Z,46.50
2019-03-24T11:51:00.528Z,46.70
2019-03-24T11:53:30.445Z,46.50
2019-03-24T11:56:00.234Z,46.50
2019-03-24T11:58:31.139Z,46.70
2019-03-24T12:01:01.038Z,46.80
2019-03-24T12:03:31.585Z,46.90
2019-03-24T12:06:01.425Z,47.00
2019-03-24T12:08:31.305Z,47.10
2019-03-24T12:11:01.343Z,47.30
2019-03-24T12:13:31.361Z,47.60
2019-03-24T12:16:01.196Z,47.80
2019-03-24T12:18:31.026Z,47.70
2019-03-24T12:21:00.808Z,47.50
2019-03-24T12:23:30.603Z,47.20
2019-03-24T12:26:00.420Z,46.90
2019-03-24T12:28:30.345Z,46.90
2019-03-24T12:31:00.326Z,46.90
2019-03-24T12:33:30.845Z,47.10
2019-03-24T12:36:00.926Z,47.00
2019-03-24T12:38:30.706Z,47.00
2019-03-24T12:41:00.505Z,46.50
2019-03-24T12:43:30.414Z,46.30
2019-03-24T12:46:00.328Z,46.60
2019-03-24T12:48:30.392Z,46.70
2019-03-24T12:51:00.226Z,46.50
2019-03-24T12:53:30.058Z,46.30
2019-03-24T12:55:59.904Z,46.30
2019-03-24T12:58:29.732Z,46.20
2019-03-24T13:00:59.730Z,46.40
2019-03-24T13:03:30.227Z,46.30
2019-03-24T13:06:00.017Z,46.50
2019-03-24T13:08:29.841Z,46.50
2019-03-24T13:10:59.683Z,47.00
2019-03-24T13:13:30.187Z,47.20
2019-03-24T13:16:00.242Z,47.40
2019-03-24T13:18:30.030Z,47.50
2019-03-24T13:21:00.560Z,47.60
2019-03-24T13:23:31.088Z,47.80
2019-03-24T13:26:00.878Z,47.90
2019-03-24T13:28:30.868Z,48.10
2019-03-24T13:31:00.697Z,48.20
2019-03-24T13:33:30.531Z,48.40
2019-03-24T13:36:01.943Z,48.40
2019-03-24T13:38:32.146Z,48.40
2019-03-24T13:41:02.045Z,48.70
2019-03-24T13:43:32.524Z,48.70
2019-03-24T13:46:02.429Z,48.70
2019-03-24T13:48:32.412Z,48.80
2019-03-24T13:51:02.198Z,48.80
2019-03-24T13:53:32.056Z,49.00
2019-03-24T13:56:02.055Z,49.10
2019-03-24T13:58:31.910Z,49.20
2019-03-24T14:01:01.934Z,49.40
2019-03-24T14:03:32.151Z,49.40
2019-03-24T14:06:02.235Z,49.60
2019-03-24T14:08:32.209Z,49.40
2019-03-24T14:11:02.018Z,49.40
2019-03-24T14:13:32.126Z,49.50
2019-03-24T14:16:01.902Z,49.50
2019-03-24T14:18:31.680Z,49.60
2019-03-24T14:21:01.741Z,49.60
2019-03-24T14:23:31.520Z,49.60
2019-03-24T14:26:01.314Z,49.60
2019-03-24T14:28:31.245Z,49.30
2019-03-24T14:31:02.045Z,49.20
2019-03-24T14:33:32.016Z,49.20
2019-03-24T14:36:01.861Z,49.10
2019-03-24T14:38:31.702Z,49.30
2019-03-24T14:41:01.612Z,49.60
2019-03-24T14:43:33.689Z,49.80
2019-03-24T14:46:02.933Z,49.80
2019-03-24T14:48:32.998Z,50.00
2019-03-24T14:51:02.837Z,50.20
2019-03-24T14:53:32.617Z,50.60
2019-03-24T14:56:02.482Z,50.60
2019-03-24T14:58:32.376Z,50.70
2019-03-24T15:01:02.264Z,50.60
2019-03-24T15:03:33.053Z,50.60
2019-03-24T15:06:02.948Z,50.60
2019-03-24T15:08:33.645Z,51.20
2019-03-24T15:11:03.727Z,50.70
2019-03-24T15:13:33.632Z,50.60
2019-03-24T15:16:03.534Z,50.40
2019-03-24T15:18:33.486Z,50.70
2019-03-24T15:21:05.898Z,50.80
2019-03-24T15:23:34.915Z,51.20
2019-03-24T15:26:05.654Z,51.40
2019-03-24T15:28:35.828Z,51.40
2019-03-24T15:31:05.672Z,51.70
2019-03-24T15:33:35.657Z,51.60
2019-03-24T15:36:05.632Z,51.50
2019-03-24T15:38:36.511Z,51.60
2019-03-24T15:41:06.477Z,51.50
2019-03-24T15:43:36.366Z,51.60
2019-03-24T15:46:06.349Z,51.70
2019-03-24T15:48:36.250Z,51.90
2019-03-24T15:51:16.397Z,52.00
2019-03-24T15:53:37.645Z,52.30
2019-03-24T15:56:07.545Z,52.40
2019-03-24T15:58:37.329Z,52.60
2019-03-24T16:01:07.122Z,52.90
2019-03-24T16:03:37.119Z,52.80
2019-03-24T16:06:06.903Z,53.00
2019-03-24T16:08:36.782Z,53.40
2019-03-24T16:11:06.748Z,53.30
2019-03-24T16:13:36.582Z,53.50
2019-03-24T16:16:06.409Z,53.80
2019-03-24T16:18:36.251Z,53.70
2019-03-24T16:21:06.149Z,53.90
2019-03-24T16:23:36.954Z,53.70
2019-03-24T16:26:06.797Z,53.90
2019-03-24T16:28:36.688Z,54.10
2019-03-24T16:31:06.520Z,55.00
2019-03-24T16:33:36.357Z,54.40
2019-03-24T16:36:06.274Z,54.50
2019-03-24T16:38:36.065Z,54.60
2019-03-24T16:41:05.973Z,54.90
2019-03-24T16:43:36.028Z,54.90
2019-03-24T16:46:05.999Z,55.00
2019-03-24T16:48:37.020Z,55.00
2019-03-24T16:51:07.163Z,55.20
2019-03-24T16:53:37.178Z,55.30
2019-03-24T16:56:07.069Z,55.60
2019-03-24T16:58:36.990Z,55.80
2019-03-24T17:01:06.848Z,55.60
2019-03-24T17:03:36.844Z,55.80
2019-03-24T17:06:06.613Z,56.30
2019-03-24T17:08:36.739Z,56.50
2019-03-24T17:11:06.529Z,56.90
2019-03-24T17:13:36.441Z,57.20
2019-03-24T17:16:06.409Z,57.50
2019-03-24T17:18:36.253Z,57.80
2019-03-24T17:21:06.345Z,57.90
2019-03-24T17:23:37.074Z,58.30
2019-03-24T17:26:06.965Z,58.30
2019-03-24T17:28:37.089Z,58.60
2019-03-24T17:31:06.969Z,58.40
2019-03-24T17:33:36.767Z,58.70
2019-03-24T17:36:06.692Z,59.00
2019-03-24T17:38:37.487Z,59.10
2019-03-24T17:41:07.404Z,59.10
2019-03-24T17:43:37.930Z,59.20
2019-03-24T17:46:07.777Z,59.50
2019-03-24T17:48:38.711Z,59.90
2019-03-24T17:51:08.612Z,60.40
2019-03-24T17:53:38.438Z,60.80
2019-03-24T17:56:08.278Z,61.10
2019-03-24T17:58:38.122Z,61.40
2019-03-24T18:01:07.959Z,62.10
2019-03-24T18:03:37.816Z,62.50
2019-03-24T18:06:07.668Z,62.20
2019-03-24T18:08:37.447Z,63.00
2019-03-24T18:11:07.224Z,62.70
2019-03-24T18:13:37.140Z,62.90
2019-03-24T18:16:07.108Z,63.60
2019-03-24T18:18:36.898Z,63.70
2019-03-24T18:21:06.888Z,63.40
2019-03-24T18:23:36.842Z,63.30
2019-03-24T18:26:06.629Z,63.50
2019-03-24T18:28:36.888Z,63.30
2019-03-24T18:31:06.718Z,63.20
2019-03-24T18:33:36.555Z,63.30
2019-03-24T18:36:06.426Z,63.10
2019-03-24T18:38:36.404Z,63.00
2019-03-24T18:41:06.326Z,62.70
2019-03-24T18:43:36.165Z,62.50
2019-03-24T18:46:06.005Z,62.30
2019-03-24T18:48:35.976Z,62.20
2019-03-24T18:51:05.769Z,62.10
2019-03-24T18:53:35.603Z,61.90
2019-03-24T18:56:06.680Z,61.50
2019-03-24T18:58:36.588Z,61.40
2019-03-24T19:01:06.383Z,61.50
2019-03-24T19:03:36.161Z,61.50
2019-03-24T19:06:06.029Z,61.50
2019-03-24T19:08:35.804Z,61.60
2019-03-24T19:11:06.629Z,61.60
2019-03-24T19:13:36.457Z,61.70
2019-03-24T19:16:06.546Z,61.80
2019-03-24T19:18:36.325Z,62.20
2019-03-24T19:21:06.217Z,62.10
2019-03-24T19:23:36.233Z,62.10
2019-03-24T19:26:06.098Z,62.10
2019-03-24T19:28:35.955Z,62.20
2019-03-24T19:31:06.677Z,62.20
2019-03-24T19:33:36.629Z,62.50
2019-03-24T19:36:06.400Z,62.50
2019-03-24T19:38:36.450Z,63.30
2019-03-24T19:41:06.401Z,63.40
2019-03-24T19:43:36.169Z,63.50
2019-03-24T19:46:06.273Z,64.00
2019-03-24T19:48:36.142Z,64.00
2019-03-24T19:51:07.177Z,64.00
2019-03-24T19:53:37.389Z,63.90
2019-03-24T19:56:07.317Z,64.00
2019-03-24T19:58:37.257Z,64.00
2019-03-24T20:01:07.089Z,64.30
2019-03-24T20:03:36.878Z,64.30
2019-03-24T20:06:06.659Z,64.20
2019-03-24T20:08:36.693Z,64.10
2019-03-24T20:11:06.846Z,64.10
2019-03-24T20:13:36.807Z,64.30
2019-03-24T20:16:06.743Z,64.50
2019-03-24T20:18:37.676Z,64.80
2019-03-24T20:21:07.807Z,65.00
2019-03-24T20:23:38.301Z,65.10
2019-03-24T20:26:08.198Z,65.30
2019-03-24T20:28:38.024Z,65.50
2019-03-24T20:31:07.834Z,65.60
2019-03-24T20:33:37.615Z,65.80
2019-03-24T20:36:07.446Z,65.80
2019-03-24T20:38:37.974Z,65.80
2019-03-24T20:41:07.750Z,65.70
2019-03-24T20:43:37.584Z,65.80
2019-03-24T20:46:07.482Z,65.80
2019-03-24T20:48:37.869Z,65.90
2019-03-24T20:51:07.777Z,65.80
2019-03-24T20:53:37.756Z,65.90
2019-03-24T20:56:07.572Z,65.70
2019-03-24T20:58:37.466Z,65.50
2019-03-24T21:01:07.303Z,65.30
2019-03-24T21:03:37.162Z,65.40
2019-03-24T21:06:06.993Z,65.40
2019-03-24T21:08:37.883Z,65.60
2019-03-24T21:11:07.674Z,65.60
2019-03-24T21:13:37.586Z,65.60
2019-03-24T21:16:07.473Z,65.80
2019-03-24T21:18:37.253Z,66.00
2019-03-24T21:21:07.099Z,66.40
2019-03-24T21:23:37.830Z,66.70
2019-03-24T21:26:07.644Z,67.00
2019-03-24T21:28:37.425Z,67.10
2019-03-24T21:31:07.354Z,67.10
2019-03-24T21:33:37.253Z,68.30
2019-03-24T21:36:07.790Z,67.90
2019-03-24T21:38:37.612Z,68.00
2019-03-24T21:41:07.701Z,68.10
2019-03-24T21:43:37.477Z,68.00
2019-03-24T21:46:07.267Z,68.40
2019-03-24T21:48:37.244Z,68.70
2019-03-24T21:51:07.804Z,68.80
2019-03-24T21:53:40.855Z,69.10
2019-03-24T21:56:10.198Z,69.10
2019-03-24T21:58:40.094Z,69.00
2019-03-24T22:01:10.536Z,69.10
2019-03-24T22:03:40.344Z,69.90
2019-03-24T22:06:10.176Z,70.00
2019-03-24T22:08:40.054Z,69.90
2019-03-24T22:11:09.825Z,69.70
2019-03-24T22:13:39.672Z,70.00
2019-03-24T22:16:09.444Z,70.50
2019-03-24T22:18:39.237Z,70.50
2019-03-24T22:21:10.404Z,70.20
2019-03-24T22:23:51.414Z,70.20
2019-03-24T22:26:11.701Z,70.40
2019-03-24T22:28:41.574Z,70.30
2019-03-24T22:31:11.350Z,70.20
2019-03-24T22:33:41.133Z,70.50
2019-03-24T22:36:10.950Z,70.50
2019-03-24T22:38:40.765Z,70.40
2019-03-24T22:41:11.561Z,70.30
2019-03-24T22:43:41.382Z,70.60
2019-03-24T22:46:11.289Z,70.40
2019-03-24T22:48:41.116Z,70.10
2019-03-24T22:51:12.114Z,70.10
2019-03-24T22:53:41.943Z,70.20
2019-03-24T22:56:12.478Z,70.30
2019-03-24T22:58:42.589Z,70.50
2019-03-24T23:01:13.880Z,70.80
2019-03-24T23:03:43.649Z,71.10
2019-03-24T23:06:13.554Z,71.50
2019-03-24T23:08:43.320Z,71.70
2019-03-24T23:11:13.957Z,72.40
2019-03-24T23:13:43.777Z,72.80
2019-03-24T23:16:13.552Z,72.90
2019-03-24T23:18:44.413Z,72.60
2019-03-24T23:21:14.195Z,72.20
2019-03-24T23:23:44.218Z,72.30
2019-03-24T23:26:14.729Z,72.50
2019-03-24T23:28:44.631Z,72.60
2019-03-24T23:31:15.392Z,72.60
2019-03-24T23:33:45.369Z,72.50
2019-03-24T23:36:15.244Z,72.50
2019-03-24T23:38:45.061Z,72.40
2019-03-24T23:41:15.037Z,72.40
2019-03-24T23:43:44.812Z,72.50
2019-03-24T23:46:14.676Z,72.30
2019-03-24T23:48:44.521Z,72.00
2019-03-24T23:51:14.373Z,72.10
2019-03-24T23:53:44.201Z,72.30
2019-03-24T23:56:14.143Z,72.30
2019-03-24T23:58:43.973Z,72.20
